Dagmar Aaen — DIXX — position and weather

sailwx.info

Track history (hours):
 
Tides and Currents Weather Stations Pressure Air Temp Water Temp Dewpoint Dewpoint Depression Visibility Wind Speed Wind Dir Waves Ship Positions

Dagmar Aaen

Last reported at 2019-Oct-04 07:48 UTC. Time now 2019-Dec-06 06:30 UTC.
Position N 54°28' E 010°15'.
Warning: this ship's position is months out of date.

Length 24 m; beam 4.8 m; draft 2.5 m.

Type: Sailing vessel. MMSI: 211249810.

Date/timePositionNaut miles runAvg speedWind from/ knotsBaromVisibWave heightAir tempDewpointWater temp
2019-Oct-04 07:48N 54°28' E 010°15'2 6.5
2019-Oct-04 07:27N 54°25' E 010°13'3 6.5
2019-Oct-04 07:01N 54°23' E 010°12'2 3.2
2019-Oct-04 06:30N 54°22' E 010°09'0 0.0
2019-Oct-04 05:52N 54°22' E 010°09'0 0.0
2019-Oct-04 05:25N 54°22' E 010°09'0 0.0
2019-Oct-04 04:58N 54°22' E 010°09'0 0.0
2019-Oct-04 04:28N 54°22' E 010°09'0 0.0
2019-Oct-04 03:58N 54°22' E 010°09'0 0.0
2019-Oct-04 03:28N 54°22' E 010°09'0 0.0
2019-Oct-04 02:58N 54°22' E 010°09'0 0.0
2019-Oct-04 02:28N 54°22' E 010°09'0 0.0
2019-Oct-04 01:58N 54°22' E 010°09'0 0.0
2019-Oct-04 01:25N 54°22' E 010°09'0 0.0
2019-Oct-04 00:58N 54°22' E 010°09'0 0.0
2019-Oct-04 00:28N 54°22' E 010°09'0 0.0
2019-Oct-03 23:58N 54°22' E 010°09'0 0.0
2019-Oct-03 23:28N 54°22' E 010°09'0 0.0
2019-Oct-03 22:58N 54°22' E 010°09'0 0.0
2019-Oct-03 22:28N 54°22' E 010°09'0 0.0
2019-Oct-03 21:58N 54°22' E 010°09'0 0.0
2019-Oct-03 21:28N 54°22' E 010°09'0 0.0
2019-Oct-03 20:58N 54°22' E 010°09'0 0.0
2019-Oct-03 20:28N 54°22' E 010°09'0 0.0
2019-Oct-03 19:58N 54°22' E 010°09'0 0.0
2019-Oct-03 19:25N 54°22' E 010°09'0 0.0
2019-Oct-03 18:58N 54°22' E 010°09'0 0.0
2019-Oct-03 18:28N 54°22' E 010°09'0 0.0
2019-Oct-03 17:55N 54°22' E 010°09'0 0.0
2019-Oct-03 17:28N 54°22' E 010°09'0 0.0
2019-Oct-03 16:58N 54°22' E 010°09'0 0.0
2019-Oct-03 16:28N 54°22' E 010°09'0 0.0
2019-Oct-03 15:52N 54°22' E 010°09'0 0.0
2019-Oct-03 15:28N 54°22' E 010°09'0 0.0
2019-Oct-03 14:58N 54°22' E 010°09'0 0.0
2019-Oct-03 14:28N 54°22' E 010°09'0 0.0
2019-Oct-03 14:00N 54°22' E 010°09'3 6.0
2019-Oct-03 13:30N 54°24' E 010°13'2 3.3
2019-Oct-03 13:00N 54°23' E 010°11'2 3.6
2019-Oct-03 12:30N 54°22' E 010°09'0 0.9
2019-Oct-03 12:00N 54°22' E 010°08'3 6.1
2019-Oct-03 11:30N 54°22' E 010°03'3 6.1
2019-Oct-03 10:59N 54°20' E 009°57'3 6.4
2019-Oct-03 10:30N 54°21' E 009°53'3 6.1
2019-Oct-03 09:56N 54°21' E 009°47'3 6.4
2019-Oct-03 09:30N 54°19' E 009°43'3 5.7
2019-Oct-03 09:01N 54°17' E 009°40'3 6.1
2019-Oct-03 08:26N 54°14' E 009°37'3 6.3
2019-Oct-03 07:56N 54°12' E 009°33'4 2.6
2019-Oct-03 06:20N 54°11' E 009°26'0 0.0
2019-Oct-03 05:26N 54°11' E 009°26'0 0.0
2019-Oct-03 04:32N 54°11' E 009°26'0 0.0
2019-Oct-03 04:31N 54°11' E 009°26'0 0.0
2019-Oct-03 02:33N 54°11' E 009°26'0 0.0
2019-Oct-03 01:39N 54°11' E 009°26'0 0.0
2019-Oct-03 01:30N 54°11' E 009°26'0 0.0
2019-Oct-03 01:00N 54°11' E 009°26'0 0.0
2019-Oct-03 00:31N 54°11' E 009°26'0 0.0
2019-Oct-03 00:01N 54°11' E 009°26'0 0.0
2019-Oct-02 23:30N 54°11' E 009°26'0 0.0
2019-Oct-02 23:01N 54°11' E 009°26'0 0.0
2019-Oct-02 22:30N 54°11' E 009°26'0 0.0
2019-Oct-02 22:00N 54°11' E 009°26'0 0.0
2019-Oct-02 21:31N 54°11' E 009°26'0 0.0
2019-Oct-02 21:00N 54°11' E 009°26'0 0.0
2019-Oct-02 20:31N 54°11' E 009°26'0 0.0
2019-Oct-02 20:00N 54°11' E 009°26'0 0.0
2019-Oct-02 19:30N 54°11' E 009°26'0 0.0
2019-Oct-02 19:00N 54°11' E 009°26'0 0.0
2019-Oct-02 18:30N 54°11' E 009°26'0 0.0
2019-Oct-02 18:00N 54°11' E 009°26'0 0.0
2019-Oct-02 17:31N 54°11' E 009°26'0 0.0
2019-Oct-02 17:01N 54°11' E 009°26'0 0.0
2019-Oct-02 16:31N 54°11' E 009°26'0 0.0
2019-Oct-02 16:01N 54°11' E 009°26'1 2.7
2019-Oct-02 15:30N 54°10' E 009°25'3 6.4
2019-Oct-02 14:59N 54°08' E 009°20'5 6.3
2019-Oct-02 14:15N 54°04' E 009°19'2 6.2
2019-Oct-02 13:59N 54°02' E 009°18'3 6.1
2019-Oct-02 13:30N 53°59' E 009°17'4 6.2
2019-Oct-02 12:51N 53°56' E 009°13'2 6.1
2019-Oct-02 12:29N 53°54' E 009°10'1 1.2
2019-Oct-02 11:31N 53°53' E 009°09'0 0.3
2019-Oct-02 11:25N 53°53' E 009°09'7 4.6
2019-Oct-02 09:55N 53°51' E 009°20'3 7.9
2019-Oct-02 09:30N 53°48' E 009°23'4 8.4
2019-Oct-02 09:00N 53°44' E 009°26'4 8.1
2019-Oct-02 08:31N 53°41' E 009°30'4 8.4
2019-Oct-02 08:01N 53°37' E 009°33'4 8.5
2019-Oct-02 07:30N 53°35' E 009°39'4 7.8
2019-Oct-02 07:00N 53°34' E 009°45'3 6.9
2019-Oct-02 06:30N 53°33' E 009°51'3 6.4
2019-Oct-02 06:00N 53°33' E 009°56'2 3.0
2019-Oct-02 05:29N 53°33' E 009°59'0 0.0
2019-Oct-02 04:59N 53°33' E 009°59'0 0.0
2019-Oct-02 04:29N 53°33' E 009°59'0 0.0
2019-Oct-02 03:59N 53°33' E 009°59'0 0.0
2019-Oct-02 03:29N 53°33' E 009°59'0 0.0
2019-Oct-02 02:59N 53°33' E 009°59'0 0.0
2019-Oct-02 02:29N 53°33' E 009°59'0 0.0
2019-Oct-02 01:59N 53°33' E 009°59'0 0.0
2019-Oct-02 01:29N 53°33' E 009°59'0 0.0
2019-Oct-02 00:59N 53°33' E 009°59'0 0.0
2019-Oct-02 00:29N 53°33' E 009°59'0 0.0
2019-Oct-01 23:59N 53°33' E 009°59'0 0.0
2019-Oct-01 23:29N 53°33' E 009°59'0 0.0
2019-Oct-01 22:59N 53°33' E 009°59'0 0.0
2019-Oct-01 22:29N 53°33' E 009°59'0 0.0
2019-Oct-01 21:59N 53°33' E 009°59'0 0.0
2019-Oct-01 21:29N 53°33' E 009°59'0 0.0
2019-Oct-01 20:56N 53°33' E 009°59'0 0.0
2019-Oct-01 20:29N 53°33' E 009°59'0 0.0
2019-Oct-01 19:59N 53°33' E 009°59'0 0.0
2019-Oct-01 19:29N 53°33' E 009°59'0 0.0
2019-Oct-01 18:59N 53°33' E 009°59'0 0.0
2019-Oct-01 18:29N 53°33' E 009°59'0 0.0
2019-Oct-01 17:59N 53°33' E 009°59'0 0.0
2019-Oct-01 17:29N 53°33' E 009°59'0 0.0
2019-Sep-29 19:17N 53°33' E 009°59'0 0.0
2019-Sep-29 18:59N 53°33' E 009°59'0 0.0
2019-Sep-29 18:29N 53°33' E 009°59'0 0.0
2019-Sep-29 17:59N 53°33' E 009°59'0 0.0
2019-Sep-29 17:29N 53°33' E 009°59'0 0.0
2019-Sep-29 16:59N 53°33' E 009°59'0 0.0
2019-Sep-29 16:29N 53°33' E 009°59'0 0.0
2019-Sep-29 15:59N 53°33' E 009°59'0 0.0
2019-Sep-29 15:29N 53°33' E 009°59'0 0.0
2019-Sep-29 14:59N 53°33' E 009°59'0 0.0
2019-Sep-29 14:29N 53°33' E 009°59'0 0.0
2019-Sep-29 13:59N 53°33' E 009°59'0 0.0
2019-Sep-29 13:29N 53°33' E 009°59'0 0.0
2019-Sep-29 12:59N 53°33' E 009°59'0 0.0
2019-Sep-29 12:29N 53°33' E 009°59'0 0.0
2019-Sep-29 11:59N 53°33' E 009°59'0 0.0
2019-Sep-29 11:29N 53°33' E 009°59'0 0.0
2019-Sep-29 10:59N 53°33' E 009°59'0 0.0
2019-Sep-29 10:29N 53°33' E 009°59'0 0.0
2019-Sep-29 09:59N 53°33' E 009°59'0 0.0
2019-Sep-29 09:29N 53°33' E 009°59'0 0.0
2019-Sep-29 08:59N 53°33' E 009°59'0 0.0
2019-Sep-29 08:29N 53°33' E 009°59'0 0.0
2019-Sep-29 07:59N 53°33' E 009°59'0 0.0
2019-Sep-29 07:29N 53°33' E 009°59'0 0.0
2019-Sep-29 06:59N 53°33' E 009°59'0 0.0
2019-Sep-29 06:29N 53°33' E 009°59'0 0.0
2019-Sep-29 05:59N 53°33' E 009°59'0 0.0
2019-Sep-29 05:29N 53°33' E 009°59'0 0.0
2019-Sep-29 04:59N 53°33' E 009°59'0 0.0
2019-Sep-29 04:29N 53°33' E 009°59'0 0.0
2019-Sep-29 03:59N 53°33' E 009°59'0 0.0
2019-Sep-29 03:29N 53°33' E 009°59'0 0.0
2019-Sep-29 02:59N 53°33' E 009°59'0 0.0
2019-Sep-29 02:29N 53°33' E 009°59'0 0.0
2019-Sep-29 01:59N 53°33' E 009°59'0 0.0
2019-Sep-29 01:29N 53°33' E 009°59'0 0.0
2019-Sep-29 00:59N 53°33' E 009°59'0 0.0
2019-Sep-29 00:29N 53°33' E 009°59'0 0.0
2019-Sep-28 23:59N 53°33' E 009°59'0 0.0
2019-Sep-28 23:29N 53°33' E 009°59'0 0.0
2019-Sep-28 22:59N 53°33' E 009°59'0 0.0
2019-Sep-28 22:29N 53°33' E 009°59'0 0.0
2019-Sep-28 21:59N 53°33' E 009°59'0 0.0
2019-Sep-28 21:29N 53°33' E 009°59'0 0.0
2019-Sep-28 20:59N 53°33' E 009°59'0 0.0
2019-Sep-28 20:29N 53°33' E 009°59'0 0.0
2019-Sep-28 19:59N 53°33' E 009°59'0 0.0
2019-Sep-28 19:29N 53°33' E 009°59'0 0.0
2019-Sep-28 18:59N 53°33' E 009°59'0 0.0
2019-Sep-28 18:29N 53°33' E 009°59'0 0.0
2019-Sep-28 17:59N 53°33' E 009°59'0 0.0
2019-Sep-28 17:29N 53°33' E 009°59'0 0.0
2019-Sep-28 16:59N 53°33' E 009°59'0 0.0
2019-Sep-28 16:29N 53°33' E 009°59'0 0.0
2019-Sep-28 15:59N 53°33' E 009°59'0 0.0
2019-Sep-28 15:29N 53°33' E 009°59'0 0.0
2019-Sep-28 14:59N 53°33' E 009°59'0 0.0
2019-Sep-28 14:29N 53°33' E 009°59'0 0.0
2019-Sep-28 13:59N 53°33' E 009°59'0 0.0
2019-Sep-28 13:29N 53°33' E 009°59'0 0.0
2019-Sep-28 12:59N 53°33' E 009°59'0 0.0
2019-Sep-28 12:29N 53°33' E 009°59'0 0.0
2019-Sep-28 11:59N 53°33' E 009°59'0 0.0
2019-Sep-28 11:29N 53°33' E 009°59'0 0.0
2019-Sep-28 10:59N 53°33' E 009°59'0 0.0
2019-Sep-28 10:29N 53°33' E 009°59'0 0.0
2019-Sep-28 09:59N 53°33' E 009°59'0 0.0
2019-Sep-28 09:29N 53°33' E 009°59'0 0.0
2019-Sep-28 08:59N 53°33' E 009°59'0 0.0
2019-Sep-28 08:29N 53°33' E 009°59'0 0.0
2019-Sep-28 07:59N 53°33' E 009°59'0 0.0
2019-Sep-28 07:29N 53°33' E 009°59'0 0.0
2019-Sep-28 06:59N 53°33' E 009°59'0 0.0
2019-Sep-28 06:29N 53°33' E 009°59'0 0.0
2019-Sep-28 05:59N 53°33' E 009°59'0 0.0
2019-Sep-28 05:29N 53°33' E 009°59'0 0.0
2019-Sep-28 04:59N 53°33' E 009°59'0 0.0
2019-Sep-28 04:29N 53°33' E 009°59'0 0.0
2019-Sep-28 03:59N 53°33' E 009°59'0 0.0
2019-Sep-28 03:29N 53°33' E 009°59'0 0.0
2019-Sep-28 02:59N 53°33' E 009°59'0 0.0
2019-Sep-28 02:29N 53°33' E 009°59'0 0.0
2019-Sep-28 01:59N 53°33' E 009°59'0 0.0
2019-Sep-28 01:29N 53°33' E 009°59'0 0.0
2019-Sep-28 00:59N 53°33' E 009°59'0 0.0
2019-Sep-28 00:29N 53°33' E 009°59'0 0.0
2019-Sep-27 23:59N 53°33' E 009°59'0 0.0
2019-Sep-27 23:29N 53°33' E 009°59'0 0.0
2019-Sep-27 22:59N 53°33' E 009°59'0 0.0
2019-Sep-27 22:29N 53°33' E 009°59'0 0.0
2019-Sep-27 21:56N 53°33' E 009°59'0 0.0
2019-Sep-27 21:29N 53°33' E 009°59'0 0.0
2019-Sep-27 20:59N 53°33' E 009°59'0 0.0
2019-Sep-27 20:29N 53°33' E 009°59'0 0.0
2019-Sep-27 19:59N 53°33' E 009°59'0 0.0
2019-Sep-27 19:29N 53°33' E 009°59'0 0.0
2019-Sep-27 18:59N 53°33' E 009°59'0 0.0
2019-Sep-27 18:29N 53°33' E 009°59'0 0.0
2019-Sep-27 17:59N 53°33' E 009°59'0 0.0
2019-Sep-27 17:31N 53°33' E 009°59'0 0.0
2019-Sep-27 17:00N 53°33' E 009°59'0 0.0
2019-Sep-27 16:30N 53°33' E 009°59'0 0.0
2019-Sep-27 16:01N 53°33' E 009°59'0 0.0
2019-Sep-27 15:31N 53°33' E 009°59'0 0.0
2019-Sep-27 15:00N 53°33' E 009°59'0 0.0
2019-Sep-27 14:30N 53°33' E 009°59'0 0.0
2019-Sep-27 14:01N 53°33' E 009°59'0 0.0
2019-Sep-27 13:31N 53°33' E 009°59'0 0.0
2019-Sep-27 13:01N 53°33' E 009°59'0 0.0
2019-Sep-27 12:30N 53°33' E 009°59'0 0.0
2019-Sep-27 12:01N 53°33' E 009°59'0 0.0
2019-Sep-27 11:30N 53°33' E 009°59'0 0.0
2019-Sep-27 11:01N 53°33' E 009°59'0 0.0
2019-Sep-27 10:30N 53°33' E 009°59'0 0.3
2019-Sep-27 10:00N 53°32' E 009°59'4 7.3
2019-Sep-27 09:30N 53°33' E 009°53'5 9.2
2019-Sep-27 09:01N 53°34' E 009°45'4 7.7
2019-Sep-27 08:30N 53°34' E 009°39'3 6.6
2019-Sep-27 08:01N 53°36' E 009°35'3 6.0
2019-Sep-27 07:31N 53°38' E 009°31'3 5.6
2019-Sep-27 07:01N 53°41' E 009°30'3 5.4
2019-Sep-27 06:31N 53°43' E 009°27'3 5.3
2019-Sep-27 06:01N 53°45' E 009°24'2 4.9
2019-Sep-27 05:31N 53°48' E 009°23'1 2.8
2019-Sep-27 05:00N 53°47' E 009°25'0 0.0
2019-Sep-27 04:31N 53°47' E 009°25'0 0.0
2019-Sep-27 04:01N 53°47' E 009°25'0 0.0
2019-Sep-27 03:31N 53°47' E 009°25'0 0.0
2019-Sep-27 03:01N 53°47' E 009°25'0 0.0
2019-Sep-27 02:31N 53°47' E 009°25'0 0.0
2019-Sep-27 02:00N 53°47' E 009°25'0 0.0
2019-Sep-27 01:31N 53°47' E 009°25'0 0.0
2019-Sep-27 01:00N 53°47' E 009°25'0 0.0
2019-Sep-27 00:31N 53°47' E 009°25'0 0.0
2019-Sep-27 00:00N 53°47' E 009°25'0 0.0
2019-Sep-26 23:31N 53°47' E 009°25'0 0.0
2019-Sep-26 23:01N 53°47' E 009°25'0 0.0
2019-Sep-26 22:31N 53°47' E 009°25'0 0.0
2019-Sep-26 22:00N 53°47' E 009°25'0 0.0
2019-Sep-26 21:31N 53°47' E 009°25'0 0.0
2019-Sep-26 21:00N 53°47' E 009°25'0 0.0
2019-Sep-26 20:31N 53°47' E 009°25'0 0.0
2019-Sep-26 20:00N 53°47' E 009°25'0 0.0
2019-Sep-26 19:31N 53°47' E 009°25'0 0.0
2019-Sep-26 19:01N 53°47' E 009°25'0 0.0
2019-Sep-26 18:30N 53°47' E 009°25'0 0.0
2019-Sep-26 18:01N 53°47' E 009°25'0 0.0
2019-Sep-26 17:30N 53°47' E 009°25'0 0.0
2019-Sep-26 17:01N 53°47' E 009°25'0 0.0
2019-Sep-26 16:30N 53°47' E 009°25'0 0.0
2019-Sep-26 16:00N 53°47' E 009°25'0 0.0
2019-Sep-26 15:31N 53°47' E 009°25'0 0.0
2019-Sep-26 15:00N 53°47' E 009°25'0 0.0
2019-Sep-26 14:31N 53°47' E 009°25'0 0.0
2019-Sep-26 14:01N 53°47' E 009°25'0 0.0
2019-Sep-26 13:31N 53°47' E 009°25'0 0.0
2019-Sep-26 13:01N 53°47' E 009°25'0 0.0
2019-Sep-26 12:30N 53°47' E 009°25'0 0.0
2019-Sep-26 12:01N 53°47' E 009°25'0 0.0
2019-Sep-26 11:30N 53°47' E 009°25'0 0.0
2019-Sep-26 11:01N 53°47' E 009°25'0 0.0
2019-Sep-26 10:31N 53°47' E 009°25'0 0.0
2019-Sep-26 10:01N 53°47' E 009°25'0 0.4
2019-Sep-26 09:31N 53°47' E 009°24'4 7.5
2019-Sep-26 09:01N 53°50' E 009°21'4 8.2
2019-Sep-26 08:30N 53°52' E 009°15'4 8.5
2019-Sep-26 08:01N 53°53' E 009°08'4 8.2
2019-Sep-26 07:31N 53°51' E 009°01'4 8.3
2019-Sep-26 07:01N 53°50' E 008°54'4 7.7
2019-Sep-26 06:31N 53°50' E 008°48'4 7.1
2019-Sep-26 06:00N 53°52' E 008°43'0 0.9
2019-Sep-26 05:31N 53°52' E 008°43'0 0.0
2019-Sep-26 05:01N 53°52' E 008°43'0 0.0
2019-Sep-26 04:30N 53°52' E 008°43'0 0.0
2019-Sep-26 04:00N 53°52' E 008°43'0 0.0
2019-Sep-26 03:31N 53°52' E 008°43'0 0.0
2019-Sep-26 03:01N 53°52' E 008°43'0 0.0
2019-Sep-26 02:30N 53°52' E 008°43'0 0.0
2019-Sep-26 01:31N 53°52' E 008°43'0 0.0
2019-Sep-26 01:01N 53°52' E 008°43'0 0.0
2019-Sep-26 00:31N 53°52' E 008°43'0 0.0
2019-Sep-26 00:01N 53°52' E 008°43'0 0.0
2019-Sep-25 23:31N 53°52' E 008°43'0 0.0
2019-Sep-25 23:01N 53°52' E 008°43'0 0.0
2019-Sep-25 22:31N 53°52' E 008°43'0 0.0
2019-Sep-25 22:00N 53°52' E 008°43'0 0.0
2019-Sep-25 21:30N 53°52' E 008°43'0 0.0
2019-Sep-25 21:00N 53°52' E 008°43'0 0.0
2019-Sep-25 20:30N 53°52' E 008°43'0 0.0
2019-Sep-25 20:01N 53°52' E 008°43'0 0.0
2019-Sep-25 19:31N 53°52' E 008°43'0 0.0
2019-Sep-25 19:00N 53°52' E 008°43'0 0.0
2019-Sep-25 18:31N 53°52' E 008°43'0 0.2
2019-Sep-25 18:00N 53°52' E 008°43'2 3.3
2019-Sep-25 17:31N 53°53' E 008°42'4 8.3
2019-Sep-25 17:01N 53°57' E 008°38'4 7.7
2019-Sep-25 16:31N 53°58' E 008°31'4 7.0
2019-Sep-25 16:00N 53°59' E 008°26'3 5.7
2019-Sep-25 15:27N 54°00' E 008°21'3 6.4
2019-Sep-25 15:01N 54°01' E 008°17'  
Track history (hours):
 
Tides and Currents Weather Stations Pressure Air Temp Water Temp Dewpoint Dewpoint Depression Visibility Wind Speed Wind Dir Waves Ship Positions

Dagmar Aaen

Last reported at 2019-Oct-04 07:48 UTC. Time now 2019-Dec-06 06:30 UTC.
Position N 54°28' E 010°15'.
Warning: this ship's position is months out of date.

Length 24 m; beam 4.8 m; draft 2.5 m.

Type: Sailing vessel. MMSI: 211249810.

Date/timePositionNaut miles runAvg speedWind from/ knotsBaromVisibWave heightAir tempDewpointWater temp
2019-Oct-04 07:48N 54°28' E 010°15'2 6.5
2019-Oct-04 07:27N 54°25' E 010°13'3 6.5
2019-Oct-04 07:01N 54°23' E 010°12'2 3.2
2019-Oct-04 06:30N 54°22' E 010°09'0 0.0
2019-Oct-04 05:52N 54°22' E 010°09'0 0.0
2019-Oct-04 05:25N 54°22' E 010°09'0 0.0
2019-Oct-04 04:58N 54°22' E 010°09'0 0.0
2019-Oct-04 04:28N 54°22' E 010°09'0 0.0
2019-Oct-04 03:58N 54°22' E 010°09'0 0.0
2019-Oct-04 03:28N 54°22' E 010°09'0 0.0
2019-Oct-04 02:58N 54°22' E 010°09'0 0.0
2019-Oct-04 02:28N 54°22' E 010°09'0 0.0
2019-Oct-04 01:58N 54°22' E 010°09'0 0.0
2019-Oct-04 01:25N 54°22' E 010°09'0 0.0
2019-Oct-04 00:58N 54°22' E 010°09'0 0.0
2019-Oct-04 00:28N 54°22' E 010°09'0 0.0
2019-Oct-03 23:58N 54°22' E 010°09'0 0.0
2019-Oct-03 23:28N 54°22' E 010°09'0 0.0
2019-Oct-03 22:58N 54°22' E 010°09'0 0.0
2019-Oct-03 22:28N 54°22' E 010°09'0 0.0
2019-Oct-03 21:58N 54°22' E 010°09'0 0.0
2019-Oct-03 21:28N 54°22' E 010°09'0 0.0
2019-Oct-03 20:58N 54°22' E 010°09'0 0.0
2019-Oct-03 20:28N 54°22' E 010°09'0 0.0
2019-Oct-03 19:58N 54°22' E 010°09'0 0.0
2019-Oct-03 19:25N 54°22' E 010°09'0 0.0
2019-Oct-03 18:58N 54°22' E 010°09'0 0.0
2019-Oct-03 18:28N 54°22' E 010°09'0 0.0
2019-Oct-03 17:55N 54°22' E 010°09'0 0.0
2019-Oct-03 17:28N 54°22' E 010°09'0 0.0
2019-Oct-03 16:58N 54°22' E 010°09'0 0.0
2019-Oct-03 16:28N 54°22' E 010°09'0 0.0
2019-Oct-03 15:52N 54°22' E 010°09'0 0.0
2019-Oct-03 15:28N 54°22' E 010°09'0 0.0
2019-Oct-03 14:58N 54°22' E 010°09'0 0.0
2019-Oct-03 14:28N 54°22' E 010°09'0 0.0
2019-Oct-03 14:00N 54°22' E 010°09'3 6.0
2019-Oct-03 13:30N 54°24' E 010°13'2 3.3
2019-Oct-03 13:00N 54°23' E 010°11'2 3.6
2019-Oct-03 12:30N 54°22' E 010°09'0 0.9
2019-Oct-03 12:00N 54°22' E 010°08'3 6.1
2019-Oct-03 11:30N 54°22' E 010°03'3 6.1
2019-Oct-03 10:59N 54°20' E 009°57'3 6.4
2019-Oct-03 10:30N 54°21' E 009°53'3 6.1
2019-Oct-03 09:56N 54°21' E 009°47'3 6.4
2019-Oct-03 09:30N 54°19' E 009°43'3 5.7
2019-Oct-03 09:01N 54°17' E 009°40'3 6.1
2019-Oct-03 08:26N 54°14' E 009°37'3 6.3
2019-Oct-03 07:56N 54°12' E 009°33'4 2.6
2019-Oct-03 06:20N 54°11' E 009°26'0 0.0
2019-Oct-03 05:26N 54°11' E 009°26'0 0.0
2019-Oct-03 04:32N 54°11' E 009°26'0 0.0
2019-Oct-03 04:31N 54°11' E 009°26'0 0.0
2019-Oct-03 02:33N 54°11' E 009°26'0 0.0
2019-Oct-03 01:39N 54°11' E 009°26'0 0.0
2019-Oct-03 01:30N 54°11' E 009°26'0 0.0
2019-Oct-03 01:00N 54°11' E 009°26'0 0.0
2019-Oct-03 00:31N 54°11' E 009°26'0 0.0
2019-Oct-03 00:01N 54°11' E 009°26'0 0.0
2019-Oct-02 23:30N 54°11' E 009°26'0 0.0
2019-Oct-02 23:01N 54°11' E 009°26'0 0.0
2019-Oct-02 22:30N 54°11' E 009°26'0 0.0
2019-Oct-02 22:00N 54°11' E 009°26'0 0.0
2019-Oct-02 21:31N 54°11' E 009°26'0 0.0
2019-Oct-02 21:00N 54°11' E 009°26'0 0.0
2019-Oct-02 20:31N 54°11' E 009°26'0 0.0
2019-Oct-02 20:00N 54°11' E 009°26'0 0.0
2019-Oct-02 19:30N 54°11' E 009°26'0 0.0
2019-Oct-02 19:00N 54°11' E 009°26'0 0.0
2019-Oct-02 18:30N 54°11' E 009°26'0 0.0
2019-Oct-02 18:00N 54°11' E 009°26'0 0.0
2019-Oct-02 17:31N 54°11' E 009°26'0 0.0
2019-Oct-02 17:01N 54°11' E 009°26'0 0.0
2019-Oct-02 16:31N 54°11' E 009°26'0 0.0
2019-Oct-02 16:01N 54°11' E 009°26'1 2.7
2019-Oct-02 15:30N 54°10' E 009°25'3 6.4
2019-Oct-02 14:59N 54°08' E 009°20'5 6.3
2019-Oct-02 14:15N 54°04' E 009°19'2 6.2
2019-Oct-02 13:59N 54°02' E 009°18'3 6.1
2019-Oct-02 13:30N 53°59' E 009°17'4 6.2
2019-Oct-02 12:51N 53°56' E 009°13'2 6.1
2019-Oct-02 12:29N 53°54' E 009°10'1 1.2
2019-Oct-02 11:31N 53°53' E 009°09'0 0.3
2019-Oct-02 11:25N 53°53' E 009°09'7 4.6
2019-Oct-02 09:55N 53°51' E 009°20'3 7.9
2019-Oct-02 09:30N 53°48' E 009°23'4 8.4
2019-Oct-02 09:00N 53°44' E 009°26'4 8.1
2019-Oct-02 08:31N 53°41' E 009°30'4 8.4
2019-Oct-02 08:01N 53°37' E 009°33'4 8.5
2019-Oct-02 07:30N 53°35' E 009°39'4 7.8
2019-Oct-02 07:00N 53°34' E 009°45'3 6.9
2019-Oct-02 06:30N 53°33' E 009°51'3 6.4
2019-Oct-02 06:00N 53°33' E 009°56'2 3.0
2019-Oct-02 05:29N 53°33' E 009°59'0 0.0
2019-Oct-02 04:59N 53°33' E 009°59'0 0.0
2019-Oct-02 04:29N 53°33' E 009°59'0 0.0
2019-Oct-02 03:59N 53°33' E 009°59'0 0.0
2019-Oct-02 03:29N 53°33' E 009°59'0 0.0
2019-Oct-02 02:59N 53°33' E 009°59'0 0.0
2019-Oct-02 02:29N 53°33' E 009°59'0 0.0
2019-Oct-02 01:59N 53°33' E 009°59'0 0.0
2019-Oct-02 01:29N 53°33' E 009°59'0 0.0
2019-Oct-02 00:59N 53°33' E 009°59'0 0.0
2019-Oct-02 00:29N 53°33' E 009°59'0 0.0
2019-Oct-01 23:59N 53°33' E 009°59'0 0.0
2019-Oct-01 23:29N 53°33' E 009°59'0 0.0
2019-Oct-01 22:59N 53°33' E 009°59'0 0.0
2019-Oct-01 22:29N 53°33' E 009°59'0 0.0
2019-Oct-01 21:59N 53°33' E 009°59'0 0.0
2019-Oct-01 21:29N 53°33' E 009°59'0 0.0
2019-Oct-01 20:56N 53°33' E 009°59'0 0.0
2019-Oct-01 20:29N 53°33' E 009°59'0 0.0
2019-Oct-01 19:59N 53°33' E 009°59'0 0.0
2019-Oct-01 19:29N 53°33' E 009°59'0 0.0
2019-Oct-01 18:59N 53°33' E 009°59'0 0.0
2019-Oct-01 18:29N 53°33' E 009°59'0 0.0
2019-Oct-01 17:59N 53°33' E 009°59'0 0.0
2019-Oct-01 17:29N 53°33' E 009°59'0 0.0
2019-Sep-29 19:17N 53°33' E 009°59'0 0.0
2019-Sep-29 18:59N 53°33' E 009°59'0 0.0
2019-Sep-29 18:29N 53°33' E 009°59'0 0.0
2019-Sep-29 17:59N 53°33' E 009°59'0 0.0
2019-Sep-29 17:29N 53°33' E 009°59'0 0.0
2019-Sep-29 16:59N 53°33' E 009°59'0 0.0
2019-Sep-29 16:29N 53°33' E 009°59'0 0.0
2019-Sep-29 15:59N 53°33' E 009°59'0 0.0
2019-Sep-29 15:29N 53°33' E 009°59'0 0.0
2019-Sep-29 14:59N 53°33' E 009°59'0 0.0
2019-Sep-29 14:29N 53°33' E 009°59'0 0.0
2019-Sep-29 13:59N 53°33' E 009°59'0 0.0
2019-Sep-29 13:29N 53°33' E 009°59'0 0.0
2019-Sep-29 12:59N 53°33' E 009°59'0 0.0
2019-Sep-29 12:29N 53°33' E 009°59'0 0.0
2019-Sep-29 11:59N 53°33' E 009°59'0 0.0
2019-Sep-29 11:29N 53°33' E 009°59'0 0.0
2019-Sep-29 10:59N 53°33' E 009°59'0 0.0
2019-Sep-29 10:29N 53°33' E 009°59'0 0.0
2019-Sep-29 09:59N 53°33' E 009°59'0 0.0
2019-Sep-29 09:29N 53°33' E 009°59'0 0.0
2019-Sep-29 08:59N 53°33' E 009°59'0 0.0
2019-Sep-29 08:29N 53°33' E 009°59'0 0.0
2019-Sep-29 07:59N 53°33' E 009°59'0 0.0
2019-Sep-29 07:29N 53°33' E 009°59'0 0.0
2019-Sep-29 06:59N 53°33' E 009°59'0 0.0
2019-Sep-29 06:29N 53°33' E 009°59'0 0.0
2019-Sep-29 05:59N 53°33' E 009°59'0 0.0
2019-Sep-29 05:29N 53°33' E 009°59'0 0.0
2019-Sep-29 04:59N 53°33' E 009°59'0 0.0
2019-Sep-29 04:29N 53°33' E 009°59'0 0.0
2019-Sep-29 03:59N 53°33' E 009°59'0 0.0
2019-Sep-29 03:29N 53°33' E 009°59'0 0.0
2019-Sep-29 02:59N 53°33' E 009°59'0 0.0
2019-Sep-29 02:29N 53°33' E 009°59'0 0.0
2019-Sep-29 01:59N 53°33' E 009°59'0 0.0
2019-Sep-29 01:29N 53°33' E 009°59'0 0.0
2019-Sep-29 00:59N 53°33' E 009°59'0 0.0
2019-Sep-29 00:29N 53°33' E 009°59'0 0.0
2019-Sep-28 23:59N 53°33' E 009°59'0 0.0
2019-Sep-28 23:29N 53°33' E 009°59'0 0.0
2019-Sep-28 22:59N 53°33' E 009°59'0 0.0
2019-Sep-28 22:29N 53°33' E 009°59'0 0.0
2019-Sep-28 21:59N 53°33' E 009°59'0 0.0
2019-Sep-28 21:29N 53°33' E 009°59'0 0.0
2019-Sep-28 20:59N 53°33' E 009°59'0 0.0
2019-Sep-28 20:29N 53°33' E 009°59'0 0.0
2019-Sep-28 19:59N 53°33' E 009°59'0 0.0
2019-Sep-28 19:29N 53°33' E 009°59'0 0.0
2019-Sep-28 18:59N 53°33' E 009°59'0 0.0
2019-Sep-28 18:29N 53°33' E 009°59'0 0.0
2019-Sep-28 17:59N 53°33' E 009°59'0 0.0
2019-Sep-28 17:29N 53°33' E 009°59'0 0.0
2019-Sep-28 16:59N 53°33' E 009°59'0 0.0
2019-Sep-28 16:29N 53°33' E 009°59'0 0.0
2019-Sep-28 15:59N 53°33' E 009°59'0 0.0
2019-Sep-28 15:29N 53°33' E 009°59'0 0.0
2019-Sep-28 14:59N 53°33' E 009°59'0 0.0
2019-Sep-28 14:29N 53°33' E 009°59'0 0.0
2019-Sep-28 13:59N 53°33' E 009°59'0 0.0
2019-Sep-28 13:29N 53°33' E 009°59'0 0.0
2019-Sep-28 12:59N 53°33' E 009°59'0 0.0
2019-Sep-28 12:29N 53°33' E 009°59'0 0.0
2019-Sep-28 11:59N 53°33' E 009°59'0 0.0
2019-Sep-28 11:29N 53°33' E 009°59'0 0.0
2019-Sep-28 10:59N 53°33' E 009°59'0 0.0
2019-Sep-28 10:29N 53°33' E 009°59'0 0.0
2019-Sep-28 09:59N 53°33' E 009°59'0 0.0
2019-Sep-28 09:29N 53°33' E 009°59'0 0.0
2019-Sep-28 08:59N 53°33' E 009°59'0 0.0
2019-Sep-28 08:29N 53°33' E 009°59'0 0.0
2019-Sep-28 07:59N 53°33' E 009°59'0 0.0
2019-Sep-28 07:29N 53°33' E 009°59'0 0.0
2019-Sep-28 06:59N 53°33' E 009°59'0 0.0
2019-Sep-28 06:29N 53°33' E 009°59'0 0.0
2019-Sep-28 05:59N 53°33' E 009°59'0 0.0
2019-Sep-28 05:29N 53°33' E 009°59'0 0.0
2019-Sep-28 04:59N 53°33' E 009°59'0 0.0
2019-Sep-28 04:29N 53°33' E 009°59'0 0.0
2019-Sep-28 03:59N 53°33' E 009°59'0 0.0
2019-Sep-28 03:29N 53°33' E 009°59'0 0.0
2019-Sep-28 02:59N 53°33' E 009°59'0 0.0
2019-Sep-28 02:29N 53°33' E 009°59'0 0.0
2019-Sep-28 01:59N 53°33' E 009°59'0 0.0
2019-Sep-28 01:29N 53°33' E 009°59'0 0.0
2019-Sep-28 00:59N 53°33' E 009°59'0 0.0
2019-Sep-28 00:29N 53°33' E 009°59'0 0.0
2019-Sep-27 23:59N 53°33' E 009°59'0 0.0
2019-Sep-27 23:29N 53°33' E 009°59'0 0.0
2019-Sep-27 22:59N 53°33' E 009°59'0 0.0
2019-Sep-27 22:29N 53°33' E 009°59'0 0.0
2019-Sep-27 21:56N 53°33' E 009°59'0 0.0
2019-Sep-27 21:29N 53°33' E 009°59'0 0.0
2019-Sep-27 20:59N 53°33' E 009°59'0 0.0
2019-Sep-27 20:29N 53°33' E 009°59'0 0.0
2019-Sep-27 19:59N 53°33' E 009°59'0 0.0
2019-Sep-27 19:29N 53°33' E 009°59'0 0.0
2019-Sep-27 18:59N 53°33' E 009°59'0 0.0
2019-Sep-27 18:29N 53°33' E 009°59'0 0.0
2019-Sep-27 17:59N 53°33' E 009°59'0 0.0
2019-Sep-27 17:31N 53°33' E 009°59'0 0.0
2019-Sep-27 17:00N 53°33' E 009°59'0 0.0
2019-Sep-27 16:30N 53°33' E 009°59'0 0.0
2019-Sep-27 16:01N 53°33' E 009°59'0 0.0
2019-Sep-27 15:31N 53°33' E 009°59'0 0.0
2019-Sep-27 15:00N 53°33' E 009°59'0 0.0
2019-Sep-27 14:30N 53°33' E 009°59'0 0.0
2019-Sep-27 14:01N 53°33' E 009°59'0 0.0
2019-Sep-27 13:31N 53°33' E 009°59'0 0.0
2019-Sep-27 13:01N 53°33' E 009°59'0 0.0
2019-Sep-27 12:30N 53°33' E 009°59'0 0.0
2019-Sep-27 12:01N 53°33' E 009°59'0 0.0
2019-Sep-27 11:30N 53°33' E 009°59'0 0.0
2019-Sep-27 11:01N 53°33' E 009°59'0 0.0
2019-Sep-27 10:30N 53°33' E 009°59'0 0.3
2019-Sep-27 10:00N 53°32' E 009°59'4 7.3
2019-Sep-27 09:30N 53°33' E 009°53'5 9.2
2019-Sep-27 09:01N 53°34' E 009°45'4 7.7
2019-Sep-27 08:30N 53°34' E 009°39'3 6.6
2019-Sep-27 08:01N 53°36' E 009°35'3 6.0
2019-Sep-27 07:31N 53°38' E 009°31'3 5.6
2019-Sep-27 07:01N 53°41' E 009°30'3 5.4
2019-Sep-27 06:31N 53°43' E 009°27'3 5.3
2019-Sep-27 06:01N 53°45' E 009°24'2 4.9
2019-Sep-27 05:31N 53°48' E 009°23'1 2.8
2019-Sep-27 05:00N 53°47' E 009°25'0 0.0
2019-Sep-27 04:31N 53°47' E 009°25'0 0.0
2019-Sep-27 04:01N 53°47' E 009°25'0 0.0
2019-Sep-27 03:31N 53°47' E 009°25'0 0.0
2019-Sep-27 03:01N 53°47' E 009°25'0 0.0
2019-Sep-27 02:31N 53°47' E 009°25'0 0.0
2019-Sep-27 02:00N 53°47' E 009°25'0 0.0
2019-Sep-27 01:31N 53°47' E 009°25'0 0.0
2019-Sep-27 01:00N 53°47' E 009°25'0 0.0
2019-Sep-27 00:31N 53°47' E 009°25'0 0.0
2019-Sep-27 00:00N 53°47' E 009°25'0 0.0
2019-Sep-26 23:31N 53°47' E 009°25'0 0.0
2019-Sep-26 23:01N 53°47' E 009°25'0 0.0
2019-Sep-26 22:31N 53°47' E 009°25'0 0.0
2019-Sep-26 22:00N 53°47' E 009°25'0 0.0
2019-Sep-26 21:31N 53°47' E 009°25'0 0.0
2019-Sep-26 21:00N 53°47' E 009°25'0 0.0
2019-Sep-26 20:31N 53°47' E 009°25'0 0.0
2019-Sep-26 20:00N 53°47' E 009°25'0 0.0
2019-Sep-26 19:31N 53°47' E 009°25'0 0.0
2019-Sep-26 19:01N 53°47' E 009°25'0 0.0
2019-Sep-26 18:30N 53°47' E 009°25'0 0.0
2019-Sep-26 18:01N 53°47' E 009°25'0 0.0
2019-Sep-26 17:30N 53°47' E 009°25'0 0.0
2019-Sep-26 17:01N 53°47' E 009°25'0 0.0
2019-Sep-26 16:30N 53°47' E 009°25'0 0.0
2019-Sep-26 16:00N 53°47' E 009°25'0 0.0
2019-Sep-26 15:31N 53°47' E 009°25'0 0.0
2019-Sep-26 15:00N 53°47' E 009°25'0 0.0
2019-Sep-26 14:31N 53°47' E 009°25'0 0.0
2019-Sep-26 14:01N 53°47' E 009°25'0 0.0
2019-Sep-26 13:31N 53°47' E 009°25'0 0.0
2019-Sep-26 13:01N 53°47' E 009°25'0 0.0
2019-Sep-26 12:30N 53°47' E 009°25'0 0.0
2019-Sep-26 12:01N 53°47' E 009°25'0 0.0
2019-Sep-26 11:30N 53°47' E 009°25'0 0.0
2019-Sep-26 11:01N 53°47' E 009°25'0 0.0
2019-Sep-26 10:31N 53°47' E 009°25'0 0.0
2019-Sep-26 10:01N 53°47' E 009°25'0 0.4
2019-Sep-26 09:31N 53°47' E 009°24'4 7.5
2019-Sep-26 09:01N 53°50' E 009°21'4 8.2
2019-Sep-26 08:30N 53°52' E 009°15'4 8.5
2019-Sep-26 08:01N 53°53' E 009°08'4 8.2
2019-Sep-26 07:31N 53°51' E 009°01'4 8.3
2019-Sep-26 07:01N 53°50' E 008°54'4 7.7
2019-Sep-26 06:31N 53°50' E 008°48'4 7.1
2019-Sep-26 06:00N 53°52' E 008°43'0 0.9
2019-Sep-26 05:31N 53°52' E 008°43'0 0.0
2019-Sep-26 05:01N 53°52' E 008°43'0 0.0
2019-Sep-26 04:30N 53°52' E 008°43'0 0.0
2019-Sep-26 04:00N 53°52' E 008°43'0 0.0
2019-Sep-26 03:31N 53°52' E 008°43'0 0.0
2019-Sep-26 03:01N 53°52' E 008°43'0 0.0
2019-Sep-26 02:30N 53°52' E 008°43'0 0.0
2019-Sep-26 01:31N 53°52' E 008°43'0 0.0
2019-Sep-26 01:01N 53°52' E 008°43'0 0.0
2019-Sep-26 00:31N 53°52' E 008°43'0 0.0
2019-Sep-26 00:01N 53°52' E 008°43'0 0.0
2019-Sep-25 23:31N 53°52' E 008°43'0 0.0
2019-Sep-25 23:01N 53°52' E 008°43'0 0.0
2019-Sep-25 22:31N 53°52' E 008°43'0 0.0
2019-Sep-25 22:00N 53°52' E 008°43'0 0.0
2019-Sep-25 21:30N 53°52' E 008°43'0 0.0
2019-Sep-25 21:00N 53°52' E 008°43'0 0.0
2019-Sep-25 20:30N 53°52' E 008°43'0 0.0
2019-Sep-25 20:01N 53°52' E 008°43'0 0.0
2019-Sep-25 19:31N 53°52' E 008°43'0 0.0
2019-Sep-25 19:00N 53°52' E 008°43'0 0.0
2019-Sep-25 18:31N 53°52' E 008°43'0 0.2
2019-Sep-25 18:00N 53°52' E 008°43'2 3.3
2019-Sep-25 17:31N 53°53' E 008°42'4 8.3
2019-Sep-25 17:01N 53°57' E 008°38'4 7.7
2019-Sep-25 16:31N 53°58' E 008°31'4 7.0
2019-Sep-25 16:00N 53°59' E 008°26'3 5.7
2019-Sep-25 15:27N 54°00' E 008°21'3 6.4
2019-Sep-25 15:01N 54°01' E 008°17'  

Dump ship's entire track history